Prattsburgh, New York
Current Conditions -  °F | °C
As of 8:53 AM on Monday 24 Nov 2014 (Local Time) from KPEO Reporting Station
Overcast Overcast  
Wind Chill: 61°   Ceiling: 3900
Heat Index: 61°   Visibility: 10mi
Dew Point: 52°   Wind: 15mph
Humidity: 72%   Direction: 180°S
Pressure: 29.43"   Gusts: 23mph
Location:  42.52°N, 77.26°W
Report Text: KPEO 241353Z AUTO 18013G20KT 10SM OVC039 16/11 A2943 RMK AO2 PK WND 18028/1302 SLP966 T01610111
Loading
Personal Weather Stations






























Interactive Weather Map New forecast layout! Learn more

10-Day Weather Forecast

Advertisements
Track Severe Weather on mobile